createdAt,value
2023-05-25T00:04:17.738Z,100203.28
2023-05-25T00:17:24.973Z,100200.84
2023-05-25T00:22:47.537Z,100194.84
2023-05-25T00:28:09.945Z,100207.09
2023-05-25T00:33:35.035Z,100186.28
2023-05-25T00:38:57.360Z,100183.78
2023-05-25T00:44:51.447Z,100186.41
2023-05-25T00:50:16.265Z,100184.31
2023-05-25T00:55:59.267Z,100191.47
2023-05-25T01:01:23.519Z,100184.75
2023-05-25T01:06:49.883Z,100185.53
2023-05-25T01:12:16.786Z,100183.63
2023-05-25T01:17:39.323Z,100173.91
2023-05-25T01:23:12.898Z,100176.31
2023-05-25T01:28:42.968Z,100175.59
2023-05-25T01:34:06.479Z,100172.63
2023-05-25T01:39:29.118Z,100185.03
2023-05-25T01:44:51.717Z,100185.25
2023-05-25T01:50:40.244Z,100203.66
2023-05-25T01:56:12.076Z,100217.31
2023-05-25T02:01:37.309Z,100212.63
2023-05-25T02:07:00.536Z,100196.25
2023-05-25T02:12:22.345Z,100211.97
2023-05-25T02:17:45.071Z,100208.06
2023-05-25T02:23:27.150Z,100196.09
2023-05-25T02:28:49.120Z,100202.97
2023-05-25T02:34:14.307Z,100187.34
2023-05-25T02:39:36.820Z,100191.03
2023-05-25T02:44:58.786Z,100188.78
2023-05-25T02:50:20.773Z,100180.34
2023-05-25T02:55:46.773Z,100169.13
2023-05-25T03:01:19.013Z,100157.63
2023-05-25T03:06:46.642Z,100155.53
2023-05-25T03:12:13.188Z,100170.91
2023-05-25T03:17:40.185Z,100169.44
2023-05-25T03:23:02.374Z,100187.09
2023-05-25T03:28:24.261Z,100196.09
2023-05-25T03:33:47.357Z,100195.50
2023-05-25T03:39:10.732Z,100195.06
2023-05-25T03:44:33.021Z,100170.69
2023-05-25T03:49:56.298Z,100169.66
2023-05-25T03:55:25.021Z,100179.69
2023-05-25T04:00:49.662Z,100184.00
2023-05-25T04:06:32.187Z,100177.28
2023-05-25T04:23:36.344Z,100163.66
2023-05-25T04:29:02.370Z,100176.13
2023-05-25T04:34:50.573Z,100178.34
2023-05-25T04:40:16.855Z,100169.94
2023-05-25T04:45:39.941Z,100158.09
2023-05-25T04:51:04.991Z,100150.72
2023-05-25T04:56:28.643Z,100159.75
2023-05-25T05:01:52.393Z,100173.34
2023-05-25T05:07:15.113Z,100176.63
2023-05-25T05:12:37.818Z,100161.97
2023-05-25T05:17:59.908Z,100164.38
2023-05-25T05:23:22.190Z,100168.47
2023-05-25T05:28:44.832Z,100169.84
2023-05-25T05:34:07.242Z,100163.03
2023-05-25T05:39:29.303Z,100163.13
2023-05-25T05:44:51.253Z,100160.28
2023-05-25T05:50:13.249Z,100151.75
2023-05-25T05:55:36.633Z,100151.84
2023-05-25T06:01:00.536Z,100150.53
2023-05-25T06:06:22.699Z,100148.88
2023-05-25T06:11:44.507Z,100151.06
2023-05-25T06:17:09.637Z,100126.69
2023-05-25T06:22:31.632Z,100127.13
2023-05-25T06:27:53.813Z,100125.03
2023-05-25T06:33:15.826Z,100117.69
2023-05-25T06:38:38.695Z,100118.13
2023-05-25T06:44:03.343Z,100111.75
2023-05-25T06:49:26.418Z,100092.34
2023-05-25T06:54:48.158Z,100088.59
2023-05-25T07:00:12.782Z,100071.81
2023-05-25T07:05:34.414Z,100077.34
2023-05-25T07:10:56.513Z,100087.13
2023-05-25T07:16:18.600Z,100074.59
2023-05-25T07:21:40.899Z,100063.06
2023-05-25T07:27:03.105Z,100075.53
2023-05-25T07:32:24.987Z,100065.66
2023-05-25T07:37:47.169Z,100061.31
2023-05-25T07:43:09.626Z,100070.38
2023-05-25T07:48:31.256Z,100067.78
2023-05-25T07:53:54.137Z,100060.03
2023-05-25T07:59:16.040Z,100059.31
2023-05-25T08:04:38.040Z,100050.00
2023-05-25T08:10:00.471Z,100030.44
2023-05-25T08:15:22.356Z,100015.91
2023-05-25T08:20:44.072Z,100006.78
2023-05-25T08:26:20.404Z,100014.28
2023-05-25T08:31:50.236Z,99998.88
2023-05-25T08:37:11.630Z,100006.06
2023-05-25T08:42:33.175Z,99994.13
2023-05-25T08:47:59.313Z,100001.75
2023-05-25T08:53:22.411Z,100007.53
2023-05-25T08:58:46.554Z,100008.38
2023-05-25T09:04:08.642Z,99995.06
2023-05-25T09:09:30.604Z,99985.59
2023-05-25T09:14:54.325Z,99973.28
2023-05-25T09:20:16.995Z,99964.69
2023-05-25T09:25:39.249Z,99974.56
2023-05-25T09:31:01.361Z,99972.19
2023-05-25T09:36:24.590Z,99961.16
2023-05-25T09:41:46.106Z,99962.31
2023-05-25T09:47:07.899Z,99961.00
2023-05-25T09:52:29.821Z,99952.34
2023-05-25T09:57:55.124Z,99949.34
2023-05-25T10:03:16.875Z,99951.13
2023-05-25T10:08:38.939Z,99947.72
2023-05-25T10:14:04.339Z,99946.53
2023-05-25T10:19:29.088Z,99953.28
2023-05-25T10:25:10.002Z,99942.63
2023-05-25T10:30:33.256Z,99946.97
2023-05-25T10:36:09.218Z,99939.47
2023-05-25T10:41:32.371Z,99924.38
2023-05-25T10:46:54.471Z,99912.94
2023-05-25T10:52:18.758Z,99899.66
2023-05-25T10:57:40.949Z,99883.41
2023-05-25T11:03:03.939Z,99867.09
2023-05-25T11:09:10.396Z,99865.97
2023-05-25T11:14:33.200Z,99854.19
2023-05-25T11:19:56.866Z,99842.72
2023-05-25T11:25:38.114Z,99825.41
2023-05-25T11:31:02.729Z,99831.75
2023-05-25T11:36:25.495Z,99839.34
2023-05-25T11:41:51.930Z,99832.25
2023-05-25T11:47:15.057Z,99833.84
2023-05-25T11:52:36.735Z,99843.28
2023-05-25T11:57:58.883Z,99844.38
2023-05-25T12:03:30.726Z,99823.09
2023-05-25T12:08:59.117Z,99827.84
2023-05-25T12:14:21.494Z,99821.50
2023-05-25T12:19:43.186Z,99799.84
2023-05-25T12:25:08.260Z,99787.75
2023-05-25T12:30:30.135Z,99790.88
2023-05-25T12:35:52.421Z,99810.97
2023-05-25T12:42:01.190Z,99802.22
2023-05-25T12:47:23.789Z,99798.16
2023-05-25T12:52:47.075Z,99798.31
2023-05-25T12:58:09.076Z,99785.59
2023-05-25T13:03:31.447Z,99790.00
2023-05-25T13:08:55.729Z,99779.53
2023-05-25T13:14:20.640Z,99778.72
2023-05-25T13:19:43.308Z,99777.38
2023-05-25T13:25:05.269Z,99783.00
2023-05-25T13:30:28.098Z,99776.69
2023-05-25T13:35:59.312Z,99768.75
2023-05-25T13:41:21.261Z,99755.53
2023-05-25T13:46:43.150Z,99759.69
2023-05-25T13:52:05.407Z,99747.94
2023-05-25T13:57:27.687Z,99740.97
2023-05-25T14:02:49.667Z,99741.59
2023-05-25T14:08:14.377Z,99740.47
2023-05-25T14:13:37.422Z,99715.53
2023-05-25T14:18:58.843Z,99716.41
2023-05-25T14:24:20.547Z,99728.56
2023-05-25T14:29:42.549Z,99737.69
2023-05-25T14:35:04.596Z,99747.31
2023-05-25T14:40:26.349Z,99748.06
2023-05-25T14:45:48.181Z,99757.00
2023-05-25T14:51:10.036Z,99736.28
2023-05-25T15:09:16.506Z,99674.56
2023-05-25T15:19:40.017Z,99678.22
2023-05-25T15:33:01.586Z,99689.19
